createdAt,value
2022-10-05T00:01:26.921Z,7.97
2022-10-05T00:04:02.978Z,7.60
2022-10-05T00:06:30.415Z,8.00
2022-10-05T00:08:57.002Z,8.43
2022-10-05T00:11:23.388Z,8.35
2022-10-05T00:13:49.834Z,8.73
2022-10-05T00:16:19.302Z,8.53
2022-10-05T00:18:49.315Z,8.77
2022-10-05T00:21:24.588Z,8.93
2022-10-05T00:23:52.691Z,7.70
2022-10-05T00:26:24.307Z,8.18
2022-10-05T00:28:52.573Z,7.70
2022-10-05T00:31:22.784Z,8.48
2022-10-05T00:33:49.681Z,7.93
2022-10-05T00:36:16.453Z,8.20
2022-10-05T00:38:43.438Z,8.23
2022-10-05T00:41:35.361Z,8.10
2022-10-05T00:44:26.606Z,7.88
2022-10-05T00:47:20.038Z,7.72
2022-10-05T00:50:04.807Z,8.25
2022-10-05T00:52:49.319Z,7.95
2022-10-05T00:55:49.581Z,8.50
2022-10-05T00:58:46.526Z,8.52
2022-10-05T01:01:16.810Z,8.55
2022-10-05T01:04:11.557Z,8.27
2022-10-05T01:07:01.873Z,9.23
2022-10-05T01:09:49.874Z,8.63
2022-10-05T01:12:25.307Z,8.98
2022-10-05T01:15:09.922Z,9.73
2022-10-05T01:17:41.755Z,8.38
2022-10-05T01:20:27.536Z,8.90
2022-10-05T01:23:15.514Z,8.35
2022-10-05T01:26:06.713Z,8.68
2022-10-05T01:29:15.594Z,10.20
2022-10-05T01:31:53.250Z,10.30
2022-10-05T01:34:30.727Z,9.13
2022-10-05T01:37:12.646Z,9.27
2022-10-05T01:40:00.983Z,9.88
2022-10-05T01:42:42.956Z,8.93
2022-10-05T01:45:18.147Z,9.57
2022-10-05T01:47:50.623Z,9.02
2022-10-05T01:50:38.727Z,9.23
2022-10-05T01:53:14.815Z,8.30
2022-10-05T01:56:09.883Z,9.63
2022-10-05T01:58:54.660Z,9.75
2022-10-05T02:01:41.568Z,10.85
2022-10-05T02:04:35.555Z,9.82
2022-10-05T02:07:08.721Z,10.50
2022-10-05T02:09:46.581Z,10.50
2022-10-05T02:12:17.623Z,10.63
2022-10-05T02:14:52.606Z,10.68
2022-10-05T02:17:27.332Z,10.77
2022-10-05T02:20:05.777Z,10.00
2022-10-05T02:22:46.358Z,11.43
2022-10-05T02:25:16.321Z,10.48
2022-10-05T02:28:01.199Z,10.32
2022-10-05T02:30:31.433Z,10.95
2022-10-05T02:33:12.886Z,10.82
2022-10-05T02:35:39.407Z,10.40
2022-10-05T02:38:28.257Z,10.77
2022-10-05T02:41:01.833Z,10.07
2022-10-05T02:43:45.628Z,12.50
2022-10-05T02:46:31.565Z,9.88
2022-10-05T02:49:16.438Z,11.40
2022-10-05T02:51:56.111Z,10.93
2022-10-05T02:54:41.033Z,11.02
2022-10-05T02:57:19.411Z,11.18
2022-10-05T03:00:16.649Z,10.80
2022-10-05T03:03:00.269Z,11.02
2022-10-05T03:05:42.719Z,11.15
2022-10-05T03:08:26.250Z,10.60
2022-10-05T03:10:57.769Z,10.23
2022-10-05T03:13:45.535Z,10.98
2022-10-05T03:16:21.795Z,10.53
2022-10-05T03:19:10.267Z,9.88
2022-10-05T03:22:10.072Z,10.15
2022-10-05T03:25:10.355Z,9.95
2022-10-05T03:27:45.047Z,10.52
2022-10-05T03:30:25.451Z,11.30
2022-10-05T03:33:22.728Z,9.70
2022-10-05T03:35:58.410Z,10.38
2022-10-05T03:38:45.371Z,9.65
2022-10-05T03:41:15.594Z,10.25
2022-10-05T03:43:47.962Z,9.82
2022-10-05T03:46:32.832Z,10.90
2022-10-05T03:49:11.235Z,10.27
2022-10-05T03:51:42.572Z,10.73
2022-10-05T03:54:22.621Z,9.32
2022-10-05T03:57:23.369Z,11.00
2022-10-05T03:59:55.689Z,10.57
2022-10-05T04:02:31.034Z,9.65
2022-10-05T04:05:03.380Z,10.18
2022-10-05T04:08:08.505Z,9.98
2022-10-05T04:10:49.435Z,10.05
2022-10-05T04:13:27.161Z,10.07
2022-10-05T04:16:25.416Z,10.85
2022-10-05T04:19:01.334Z,9.57
2022-10-05T04:21:35.097Z,10.65
2022-10-05T04:24:14.564Z,10.93
2022-10-05T04:26:50.187Z,9.70
2022-10-05T04:29:39.481Z,10.45
2022-10-05T04:32:30.481Z,10.07
2022-10-05T04:35:15.569Z,9.73
2022-10-05T04:37:54.237Z,9.85
2022-10-05T04:40:39.598Z,10.60
2022-10-05T04:43:21.530Z,11.07
2022-10-05T04:45:54.007Z,10.35
2022-10-05T04:48:27.871Z,10.52
2022-10-05T04:51:03.352Z,10.00
2022-10-05T04:53:33.995Z,10.52
2022-10-05T04:56:00.215Z,10.30
2022-10-05T04:58:45.392Z,10.10
2022-10-05T05:01:38.556Z,10.90
2022-10-05T05:04:14.244Z,10.27
2022-10-05T05:06:53.318Z,10.23
2022-10-05T05:09:27.087Z,10.00
2022-10-05T05:11:56.665Z,10.82
2022-10-05T05:14:44.877Z,9.40
2022-10-05T05:17:14.010Z,11.73
2022-10-05T05:19:50.650Z,10.38
2022-10-05T05:22:33.727Z,10.02
2022-10-05T05:25:12.395Z,11.07
2022-10-05T05:27:41.547Z,9.63
2022-10-05T05:30:22.791Z,10.63
2022-10-05T05:32:55.513Z,9.70
2022-10-05T05:35:34.875Z,10.75
2022-10-05T05:38:20.036Z,11.20
2022-10-05T05:41:09.021Z,10.20
2022-10-05T05:43:48.356Z,10.18
2022-10-05T05:46:30.135Z,9.90
2022-10-05T05:49:28.237Z,10.15
2022-10-05T05:51:58.987Z,9.30
2022-10-05T05:54:35.908Z,9.98
2022-10-05T05:57:23.319Z,9.63
2022-10-05T05:59:49.816Z,10.07
2022-10-05T06:02:19.475Z,9.70
2022-10-05T06:04:49.669Z,10.35
2022-10-05T06:07:18.591Z,10.40
2022-10-05T06:09:48.135Z,9.88
2022-10-05T06:12:17.746Z,8.95
2022-10-05T06:14:55.854Z,9.82
2022-10-05T06:17:40.494Z,9.52
2022-10-05T06:20:11.581Z,9.13
2022-10-05T06:22:39.913Z,9.77
2022-10-05T06:25:13.248Z,9.88
2022-10-05T06:27:58.183Z,9.25
2022-10-05T06:30:26.571Z,9.68
2022-10-05T06:32:53.095Z,10.18
2022-10-05T06:35:39.597Z,9.13
2022-10-05T06:38:24.906Z,8.43
2022-10-05T06:40:52.529Z,7.78
2022-10-05T06:43:38.556Z,8.25
2022-10-05T06:46:18.546Z,8.65
2022-10-05T06:49:09.080Z,7.80
2022-10-05T06:51:48.416Z,8.23
2022-10-05T06:54:23.745Z,8.15
2022-10-05T06:57:02.172Z,8.20
2022-10-05T06:59:32.141Z,7.00
2022-10-05T07:02:12.601Z,7.03
2022-10-05T07:05:04.997Z,7.68
2022-10-05T07:07:37.721Z,7.32
2022-10-05T07:10:10.054Z,6.85
2022-10-05T07:12:42.783Z,7.47
2022-10-05T07:15:24.835Z,6.72
2022-10-05T07:18:04.012Z,6.82
2022-10-05T07:20:32.444Z,6.47
2022-10-05T07:23:18.123Z,7.15
2022-10-05T07:25:44.455Z,7.00
2022-10-05T07:28:15.831Z,6.97
2022-10-05T07:30:47.761Z,6.55
2022-10-05T07:33:27.441Z,6.68
2022-10-05T07:36:32.139Z,7.50
2022-10-05T07:39:58.387Z,7.30
2022-10-05T07:42:20.002Z,6.43
2022-10-05T07:44:53.716Z,6.40
2022-10-05T07:47:39.378Z,6.07
2022-10-05T07:50:15.484Z,6.43
2022-10-05T07:52:50.445Z,5.53
2022-10-05T07:55:21.422Z,5.80
2022-10-05T07:57:54.515Z,6.00
2022-10-05T08:00:22.318Z,5.72
2022-10-05T08:02:54.483Z,5.45
2022-10-05T08:05:36.018Z,5.43
2022-10-05T08:08:15.551Z,5.97
2022-10-05T08:10:49.173Z,6.05
2022-10-05T08:13:37.753Z,5.57
2022-10-05T08:16:06.397Z,5.57
2022-10-05T08:18:51.682Z,4.78
2022-10-05T08:21:21.265Z,4.85
2022-10-05T08:23:54.135Z,5.43
2022-10-05T08:26:25.025Z,5.70
2022-10-05T08:29:04.793Z,5.10
2022-10-05T08:31:37.653Z,5.40
2022-10-05T08:34:23.233Z,4.93
2022-10-05T08:36:54.238Z,5.22
2022-10-05T08:39:21.833Z,5.32
2022-10-05T08:41:52.693Z,5.20
2022-10-05T08:44:40.354Z,5.55
2022-10-05T08:47:25.142Z,5.53
2022-10-05T08:50:10.395Z,5.10
2022-10-05T08:53:04.725Z,5.25
2022-10-05T08:55:40.375Z,5.25
2022-10-05T08:58:06.713Z,4.70
2022-10-05T09:00:50.438Z,5.00
2022-10-05T09:03:36.738Z,5.20
2022-10-05T09:06:07.073Z,5.57
2022-10-05T09:08:36.485Z,5.18
2022-10-05T09:11:24.361Z,4.80
2022-10-05T09:14:03.972Z,4.80
2022-10-05T09:16:39.799Z,4.75
2022-10-05T09:19:25.231Z,4.78
2022-10-05T09:21:55.148Z,5.15
2022-10-05T09:24:21.930Z,4.47
2022-10-05T09:26:58.782Z,4.85
2022-10-05T09:29:44.144Z,4.68
2022-10-05T09:32:30.237Z,4.45
2022-10-05T09:34:59.564Z,4.70
2022-10-05T09:37:36.141Z,5.18
2022-10-05T09:40:11.783Z,4.70
2022-10-05T09:42:55.961Z,4.82
2022-10-05T09:45:31.199Z,5.13
2022-10-05T09:48:00.323Z,4.50
2022-10-05T09:50:29.601Z,4.28
2022-10-05T09:53:11.214Z,4.75
2022-10-05T09:55:56.367Z,4.20
2022-10-05T09:58:30.307Z,4.20
2022-10-05T10:01:08.804Z,4.72
2022-10-05T10:03:45.933Z,4.63
2022-10-05T10:06:21.289Z,4.28
2022-10-05T10:08:51.909Z,5.22
2022-10-05T10:11:38.647Z,4.93
2022-10-05T10:14:23.717Z,4.43
2022-10-05T10:17:11.830Z,4.50
2022-10-05T10:19:38.759Z,4.40
2022-10-05T10:22:24.083Z,4.20
2022-10-05T10:25:05.727Z,4.47
2022-10-05T10:27:44.233Z,4.10
2022-10-05T10:30:34.432Z,4.20
2022-10-05T10:33:02.746Z,4.10
2022-10-05T10:35:36.293Z,3.87
2022-10-05T10:38:12.207Z,4.13
2022-10-05T10:40:42.976Z,3.85
2022-10-05T10:43:27.912Z,4.15
2022-10-05T10:45:59.816Z,3.75
2022-10-05T10:48:28.922Z,3.90
2022-10-05T10:50:55.501Z,4.22
2022-10-05T10:53:25.207Z,3.35
2022-10-05T10:56:08.614Z,3.95
2022-10-05T10:58:42.607Z,4.00
2022-10-05T11:01:27.863Z,3.80
2022-10-05T11:04:17.312Z,3.92
2022-10-05T11:07:02.314Z,3.35
2022-10-05T11:09:41.839Z,3.83
2022-10-05T11:12:36.911Z,4.07
2022-10-05T11:15:23.222Z,3.28
2022-10-05T11:17:55.483Z,3.25
2022-10-05T11:20:46.442Z,4.05
2022-10-05T11:23:28.285Z,3.22
2022-10-05T11:25:58.959Z,3.38
2022-10-05T11:28:50.335Z,3.50
2022-10-05T11:31:37.445Z,3.30
2022-10-05T11:34:06.743Z,3.15
2022-10-05T11:36:33.399Z,3.45
2022-10-05T11:39:17.028Z,3.30
2022-10-05T11:41:47.086Z,3.30
2022-10-05T11:44:25.205Z,4.20
2022-10-05T11:47:13.110Z,2.85
2022-10-05T11:49:40.768Z,3.83
2022-10-05T11:52:13.050Z,3.35
2022-10-05T11:55:10.871Z,3.33
2022-10-05T11:57:43.045Z,3.10
2022-10-05T12:00:16.267Z,3.38
2022-10-05T12:02:43.937Z,3.15
2022-10-05T12:05:13.465Z,3.33
2022-10-05T12:07:57.060Z,3.38
2022-10-05T12:10:43.149Z,3.33
2022-10-05T12:13:28.261Z,2.90
2022-10-05T12:16:07.613Z,3.40
2022-10-05T12:18:43.101Z,3.40
2022-10-05T12:21:31.655Z,3.20
2022-10-05T12:26:40.709Z,3.10
2022-10-05T12:29:14.392Z,3.33
2022-10-05T12:32:04.619Z,2.90
2022-10-05T12:34:37.069Z,2.47
2022-10-05T12:37:31.378Z,3.30
2022-10-05T12:40:15.881Z,3.38
2022-10-05T12:42:46.137Z,3.13
2022-10-05T12:45:18.300Z,3.17
2022-10-05T12:47:55.641Z,3.10
2022-10-05T12:50:28.524Z,3.20
2022-10-05T12:52:56.107Z,3.15
2022-10-05T12:55:41.448Z,3.15
2022-10-05T12:58:17.017Z,3.00
2022-10-05T13:01:06.663Z,2.60
2022-10-05T13:03:47.408Z,2.88
2022-10-05T13:06:23.565Z,2.70
2022-10-05T13:08:50.563Z,2.92
2022-10-05T13:14:02.397Z,2.88
2022-10-05T13:16:29.613Z,2.97
2022-10-05T13:19:14.384Z,3.08
2022-10-05T13:21:47.647Z,2.60
2022-10-05T13:24:20.834Z,2.92
2022-10-05T13:26:56.108Z,3.20
2022-10-05T13:29:33.127Z,2.70
2022-10-05T13:32:16.437Z,3.53
2022-10-05T13:34:50.915Z,3.25
2022-10-05T13:37:27.963Z,3.28
2022-10-05T13:40:15.125Z,3.30
2022-10-05T13:42:48.692Z,3.10
2022-10-05T13:45:17.722Z,3.03
2022-10-05T13:48:00.379Z,2.90
2022-10-05T13:50:31.153Z,2.70
2022-10-05T13:53:03.327Z,2.72
2022-10-05T13:55:36.012Z,2.70
2022-10-05T13:58:11.749Z,2.80
2022-10-05T14:00:46.241Z,2.45
2022-10-05T14:03:24.729Z,2.75
2022-10-05T14:05:56.324Z,2.47
2022-10-05T14:08:25.815Z,2.50
2022-10-05T14:10:54.444Z,1.83
2022-10-05T14:13:41.354Z,2.30
2022-10-05T14:16:14.684Z,1.80
2022-10-05T14:18:58.906Z,1.95
2022-10-05T14:21:26.822Z,2.53
2022-10-05T14:23:54.546Z,2.00
2022-10-05T14:26:24.754Z,2.20
2022-10-05T14:28:58.861Z,2.67
2022-10-05T14:31:35.837Z,1.80
2022-10-05T14:34:21.110Z,2.10
2022-10-05T14:36:55.489Z,1.95
2022-10-05T14:39:25.850Z,1.95
2022-10-05T14:41:52.271Z,2.00
2022-10-05T14:44:25.088Z,2.10
2022-10-05T14:47:15.462Z,2.30
2022-10-05T14:49:49.682Z,1.92
2022-10-05T14:52:28.604Z,1.73
2022-10-05T14:55:00.893Z,2.38
2022-10-05T14:57:41.030Z,1.80
2022-10-05T15:00:18.052Z,2.40
2022-10-05T15:02:54.594Z,2.10
2022-10-05T15:05:34.237Z,2.20
2022-10-05T15:08:12.560Z,2.10
2022-10-05T15:10:44.088Z,2.40
2022-10-05T15:13:21.299Z,2.05
2022-10-05T15:15:58.183Z,2.10
2022-10-05T15:18:45.294Z,2.22
2022-10-05T15:21:36.179Z,2.20
2022-10-05T15:24:09.476Z,2.10
2022-10-05T15:26:39.613Z,1.85
2022-10-05T15:29:11.878Z,2.13
2022-10-05T15:32:01.676Z,2.22
2022-10-05T15:34:36.703Z,2.10
2022-10-05T15:37:18.992Z,2.30
2022-10-05T15:40:05.657Z,2.35
2022-10-05T15:42:36.938Z,2.38
2022-10-05T15:45:27.648Z,1.98
2022-10-05T15:47:56.928Z,2.05
2022-10-05T15:50:43.655Z,1.70
2022-10-05T15:53:28.895Z,1.75
2022-10-05T15:55:58.960Z,2.20
2022-10-05T15:58:45.963Z,2.13
2022-10-05T16:01:16.151Z,2.25
2022-10-05T16:04:01.202Z,2.13
2022-10-05T16:07:05.374Z,1.98
2022-10-05T16:09:44.811Z,3.63
2022-10-05T16:12:21.442Z,2.00
2022-10-05T16:14:54.979Z,2.03
2022-10-05T16:17:25.425Z,1.98
2022-10-05T16:20:03.090Z,1.90
2022-10-05T16:25:05.813Z,2.30
2022-10-05T16:27:55.179Z,2.97
2022-10-05T16:30:30.070Z,2.30
2022-10-05T16:32:59.522Z,1.75
2022-10-05T16:36:04.395Z,2.55
2022-10-05T16:38:43.277Z,2.40
2022-10-05T16:41:14.519Z,2.45
2022-10-05T16:43:59.371Z,2.65
2022-10-05T16:46:28.914Z,2.33
2022-10-05T16:49:14.099Z,2.35
2022-10-05T16:51:51.604Z,2.00
2022-10-05T16:54:47.538Z,2.55
2022-10-05T16:57:21.815Z,2.35
2022-10-05T17:00:15.039Z,2.15
2022-10-05T17:02:46.000Z,2.20
2022-10-05T17:05:16.499Z,2.00
2022-10-05T17:08:01.013Z,1.70
2022-10-05T17:10:30.377Z,2.00
2022-10-05T17:13:02.434Z,1.80
2022-10-05T17:15:34.832Z,1.80
2022-10-05T17:18:16.940Z,1.80
2022-10-05T17:20:43.580Z,1.90
2022-10-05T17:23:31.677Z,1.80
2022-10-05T17:26:02.007Z,2.20
2022-10-05T17:28:46.998Z,2.58
2022-10-05T17:31:16.353Z,2.33
2022-10-05T17:34:01.771Z,2.28
2022-10-05T17:36:42.896Z,2.08
2022-10-05T17:39:20.661Z,1.85
2022-10-05T17:44:16.417Z,1.70
2022-10-05T17:46:52.729Z,2.00
2022-10-05T17:49:34.441Z,1.80
2022-10-05T17:52:21.733Z,1.90
2022-10-05T17:55:07.563Z,1.75
2022-10-05T17:57:36.686Z,2.60
2022-10-05T18:00:03.075Z,2.28
2022-10-05T18:02:36.596Z,1.87
2022-10-05T18:05:04.241Z,2.00
2022-10-05T18:07:31.565Z,3.05
2022-10-05T18:10:04.387Z,2.20
2022-10-05T18:12:36.776Z,2.42
2022-10-05T18:15:03.395Z,2.33
2022-10-05T18:17:34.028Z,2.13
2022-10-05T18:20:22.909Z,2.03
2022-10-05T18:22:52.286Z,2.35
2022-10-05T18:25:22.704Z,2.20
2022-10-05T18:27:52.493Z,2.10
2022-10-05T18:30:18.738Z,2.22
2022-10-05T18:33:04.647Z,2.10
2022-10-05T18:35:40.796Z,2.28
2022-10-05T18:38:26.668Z,2.53
2022-10-05T18:40:56.215Z,2.20
2022-10-05T18:43:29.609Z,1.85
2022-10-05T18:45:56.309Z,2.63
2022-10-05T18:48:33.235Z,2.50
2022-10-05T18:51:02.809Z,1.90
2022-10-05T18:53:41.374Z,2.10
2022-10-05T18:56:11.471Z,2.20
2022-10-05T18:58:57.118Z,2.25
2022-10-05T19:01:29.886Z,2.20
2022-10-05T19:04:16.305Z,1.90
2022-10-05T19:06:59.253Z,2.38
2022-10-05T19:09:44.952Z,2.38
2022-10-05T19:12:20.307Z,2.35
2022-10-05T19:14:52.834Z,2.50
2022-10-05T19:17:30.136Z,2.03
2022-10-05T19:19:59.272Z,2.00
2022-10-05T19:22:28.547Z,2.17
2022-10-05T19:24:55.556Z,2.25
2022-10-05T19:27:41.435Z,2.30
2022-10-05T19:30:11.493Z,2.13
2022-10-05T19:32:41.309Z,2.50
2022-10-05T19:35:23.708Z,2.40
2022-10-05T19:37:50.599Z,2.30
2022-10-05T19:40:40.307Z,2.15
2022-10-05T19:43:15.677Z,2.47
2022-10-05T19:45:54.602Z,2.50
2022-10-05T19:48:36.676Z,2.30
2022-10-05T19:51:05.511Z,2.17
2022-10-05T19:53:38.466Z,1.80
2022-10-05T19:56:17.293Z,2.28
2022-10-05T19:58:45.447Z,2.50
2022-10-05T20:01:12.438Z,2.63
2022-10-05T20:03:44.176Z,2.65
2022-10-05T20:06:10.737Z,3.00
2022-10-05T20:08:47.182Z,2.38
2022-10-05T20:11:22.855Z,2.38
2022-10-05T20:13:52.461Z,2.17
2022-10-05T20:16:46.617Z,2.47
2022-10-05T20:19:54.392Z,2.67
2022-10-05T20:22:24.236Z,2.30
2022-10-05T20:24:51.866Z,2.40
2022-10-05T20:27:56.806Z,3.42
2022-10-05T20:30:25.626Z,2.35
2022-10-05T20:32:53.388Z,2.13
2022-10-05T20:35:23.526Z,2.70
2022-10-05T20:37:52.058Z,2.40
2022-10-05T20:40:19.632Z,2.47
2022-10-05T20:42:46.354Z,2.83
2022-10-05T20:45:13.111Z,2.63
2022-10-05T20:47:40.448Z,2.28
2022-10-05T20:50:09.179Z,2.10
2022-10-05T20:52:37.200Z,2.53
2022-10-05T20:55:04.843Z,2.45
2022-10-05T20:57:31.460Z,2.60
2022-10-05T20:59:57.810Z,2.42
2022-10-05T21:02:24.071Z,2.50
2022-10-05T21:04:50.481Z,2.70
2022-10-05T21:07:19.056Z,2.58
2022-10-05T21:09:46.574Z,1.85
2022-10-05T21:12:13.556Z,0.80
2022-10-05T21:14:40.575Z,0.90
2022-10-05T21:17:07.215Z,0.73
2022-10-05T21:19:42.685Z,0.60
2022-10-05T21:22:09.633Z,0.70
2022-10-05T21:24:39.594Z,0.50
2022-10-05T21:27:06.168Z,1.00
2022-10-05T21:29:34.197Z,0.80
2022-10-05T21:32:00.602Z,0.88
2022-10-05T21:34:30.209Z,0.90
2022-10-05T21:36:56.539Z,0.90
2022-10-05T21:39:23.677Z,1.00
2022-10-05T21:41:50.024Z,0.95
2022-10-05T21:44:16.618Z,0.90
2022-10-05T21:46:48.613Z,1.08
2022-10-05T21:49:17.517Z,0.90
2022-10-05T21:51:46.127Z,0.90
2022-10-05T21:54:15.551Z,1.27
2022-10-05T21:56:44.045Z,1.20
2022-10-05T21:59:11.702Z,1.10
2022-10-05T22:01:40.298Z,0.88
2022-10-05T22:04:09.899Z,0.93
2022-10-05T22:06:36.477Z,1.23
2022-10-05T22:09:03.481Z,1.30
2022-10-05T22:11:31.502Z,1.20
2022-10-05T22:14:02.383Z,1.20
2022-10-05T22:16:31.370Z,1.17
2022-10-05T22:18:58.070Z,1.00
2022-10-05T22:21:26.394Z,1.08
2022-10-05T22:23:52.750Z,1.45
2022-10-05T22:26:20.522Z,1.35
2022-10-05T22:28:47.058Z,0.90
2022-10-05T22:31:13.646Z,1.00
2022-10-05T22:33:44.002Z,0.70
2022-10-05T22:36:10.626Z,1.13
2022-10-05T22:38:36.972Z,1.25
2022-10-05T22:41:03.726Z,1.30
2022-10-05T22:43:32.972Z,0.75
2022-10-05T22:46:01.040Z,0.93
2022-10-05T22:48:27.656Z,1.17
2022-10-05T22:50:54.120Z,1.40
2022-10-05T22:53:20.459Z,1.20
2022-10-05T22:55:46.727Z,0.98
2022-10-05T22:58:13.104Z,0.90
2022-10-05T23:00:57.654Z,1.55
2022-10-05T23:03:24.667Z,1.50
2022-10-05T23:05:57.571Z,1.20
2022-10-05T23:08:24.289Z,1.60
2022-10-05T23:10:50.629Z,2.92
2022-10-05T23:13:17.115Z,1.30
2022-10-05T23:15:44.317Z,1.33
2022-10-05T23:18:11.598Z,1.23
2022-10-05T23:20:40.450Z,1.42
2022-10-05T23:23:06.741Z,1.38
2022-10-05T23:25:34.365Z,1.60
2022-10-05T23:28:01.850Z,1.90
2022-10-05T23:30:28.523Z,1.85
2022-10-05T23:32:54.789Z,1.60
2022-10-05T23:35:21.089Z,2.28
2022-10-05T23:37:47.371Z,1.50
2022-10-05T23:40:14.155Z,1.58
2022-10-05T23:42:40.920Z,2.28
2022-10-05T23:45:11.709Z,2.35
2022-10-05T23:47:41.610Z,1.58
2022-10-05T23:50:09.152Z,1.55
2022-10-05T23:52:36.142Z,1.48
2022-10-05T23:55:04.094Z,1.65
2022-10-05T23:57:30.907Z,1.40
2022-10-05T23:59:57.257Z,1.60
